Kenai, AK

6:39 AM AKDT on September 22, 2014 (GMT -0800)
Soldotna | Change Station
CLOSE
Current Station
Airport
Location: Soldotna,
Elevation: 112 ft
Nearby Weather Stations

Elev 112 ft 60.48 °N, 151.03 °W | Updated 3 minutes ago

Clear
Clear
30 °F
Feels Like 27 °F
N
4
Wind Variable Wind from ENE

Today
High -- | Low -- °F
--% Chance of Precip.
Yesterday
High -- | Low -- °F
Precip. -- in
7:49 AM 8:03 PM
Waning Crescent, 3% visible
Pressure 29.51 in
Visibility 10.0 miles
Clouds Clear
Windchill 27 °F
Dew Point 28 °F
Humidity 93%
Rainfall 0.00 in
Snow Depth 5 in , 1 in , 0 in
UV 0 out of 12
Pollen Not available.
Air Quality Not available.
Flu Activity Not available.
METAR PASX 221436Z AUTO 07003KT 10SM CLR M01/M02 A2951 RMK AO1

More Conditions Fewer Conditions

Pressure 29.51 in
Visibility 10.0 miles
Clouds Clear
Windchill 27 °F
Dew Point 28 °F
Humidity 93%
Rainfall 0.00 in
Snow Depth 5 in , 1 in , 0 in
UV 0 out of 12
Pollen Not available.
Air Quality Not available.
Flu Activity Not available.
METAR PASX 221436Z AUTO 07003KT 10SM CLR M01/M02 A2951 RMK AO1

More Conditions Fewer Conditions

10-Day Weather Forecast

Almanac

Astronomy

Sep. 22, 2014 Rise Set
Actual Time 7:49 AM AKDT 8:03 PM AKDT
Civil Twilight 7:07 AM AKDT 8:46 PM AKDT
Nautical Twilight 6:15 AM AKDT 9:36 PM AKDT
Astronomical Twilight 5:19 AM AKDT 10:32 PM AKDT
Moon 6:13 AM AKDT 7:23 PM AKDT
Length of Visible Light 13h 39m
Length of Day
12h 14m
Tomorrow will be 5m 30s shorter.
Waning Crescent, 3% of the Moon is Illuminated
Today
Waning Crescent
Sep 24
New
Oct 1
First Quarter
Oct 8
Full
Oct 15
Last Quarter

Today's Extremes

State Highs State Lows

Community

WunderPhotos

Upload Photos

1,755,448 photos uploaded!

WunderBlogs® & News

By Dr. Jeff Masters
Director of Meteorology, Weather Underground
By Kari Strenfel
Meteorologist, Weather Underground
By Christopher C. Burt
Weather Historian, Weather Underground
September 22, 2014
September 22, 2014
September 22, 2014

Nearby

Snow Depth

Station Depth Elevation
Imnaviat Creek 5 in 3050 ft
Munson Ridge 1 in 3100 ft
Fort Yukon 0 in 430 ft
Summit Creek 0 in 1400 ft
Coldfoot 1 in 1040 ft

Earthquake Activity

City Distance Mag. Time & Date
No recent earthquake activity has been reported nearby.
Minimum magnitude displayed is 2.5.

Coastal Water Temperatures

Place Temperature
No Stations Reporting

Nearby Weather Stations